Airfield :
LOGIN :

Register | Disclaimer

   EN    FR    IT 

 










Legend :    VFR   Marginal VFR   IFR   Intensive IFR   Very Intensive IFR
Visi :
Ceiling :
>= 8 km
>= 3000ft
5 to 8 km
1000 to 3000 ft
1500m to 5 km
500 to 1000 ft
800 to 1500m
200 to 500 ft
< 800m
< 200 ft
Symbols :   Thunderstorms  Fog  Heavy snow  Heavy precipitations  Wind > 20 kt
SIGMETs :     Misc.  Thunderstorms  Icing  Turbulence  Mountain Waves  Volcanic Ashes







- Airport Elevation : 1411 ft
- IATA code : ZHI


LSZG - Grenchen

CURRENT METAR :
  • 211620Z AUTO 26001KT 6000 -RA OVC020 05/03 Q1018

EXPIRED METARs :
  • 211550Z 27003KT 9999 -RA FEW025 SCT035 BKN055 05/02 Q1018 NOSIG
  • 211520Z 25003KT 9999 -RA FEW025 SCT035 BKN055 06/02 Q1018 NOSIG
  • 211450Z AUTO 27005KT 9999 FEW032 OVC060 BKN080 06/02 Q1017
  • 211420Z 27007KT 9999 VCSH FEW028 SCT035 BKN071 06/01 Q1017 NOSIG
  • 211350Z AUTO 26005KT 9999 FEW028 BKN080 06/01 Q1017

TAF TAF LSZG
Valid from the 21 at 15:00 until the 22 at 00:00 UTC


211425Z 2115/2124 26005KT 9999 FEW012 SCT045 BKN080
BECMG 2116/2119 4000 RA BKN012
PROB30
TEMPO 2116/2119 2500 RASN BKN009
ATIS : +41 32 396 96 33
No reported NOTAMs for that airfield.
1 SIGMET reported for the Switzerland FIR (LSAS) :
 
Severe icing
LSAS SIGMET 6 VALID 211450/211850 LSZH
LSAS SWITZERLAND FIR/UIR SEV ICE FCST N OF N4551 AND W OF E00826 SFC/FL200 MOV E NC=



MET'MAP, your aeronautical weather chart ! - Copyright ORBIFLY December 2007 - Disclaimer

ORBIFLY MET'MAP TEAM :

Programming & Development : Alexandra Zaïnal
Concept & Development : Baudouin d'Aumeries
Co-Development & Prog : Marc-Olivier Méhu
Technical & hardware support : Manuel Goepfert

Contact : metmap@orbifly.com




SOURCES & CREDITS :

   NOAA